sensor_id;sensor_type;location;lat;lon;timestamp;P1;durP1;ratioP1;P2;durP2;ratioP2
51602;SDS011;37954;51.980;5.850;2024-02-16T00:03:55;5.10;;;2.50;;
51602;SDS011;37954;51.980;5.850;2024-02-16T00:08:07;3.40;;;2.15;;
51602;SDS011;37954;51.980;5.850;2024-02-16T00:12:18;3.65;;;2.22;;
51602;SDS011;37954;51.980;5.850;2024-02-16T00:16:30;2.63;;;2.08;;
51602;SDS011;37954;51.980;5.850;2024-02-16T00:20:42;6.65;;;2.90;;
51602;SDS011;37954;51.980;5.850;2024-02-16T00:24:54;4.70;;;2.53;;
51602;SDS011;37954;51.980;5.850;2024-02-16T00:29:06;3.75;;;2.20;;
51602;SDS011;37954;51.980;5.850;2024-02-16T00:33:17;3.53;;;2.00;;
51602;SDS011;37954;51.980;5.850;2024-02-16T00:37:30;5.32;;;2.50;;
51602;SDS011;37954;51.980;5.850;2024-02-16T00:41:42;2.50;;;1.95;;
51602;SDS011;37954;51.980;5.850;2024-02-16T00:45:54;3.50;;;2.15;;
51602;SDS011;37954;51.980;5.850;2024-02-16T00:50:07;2.95;;;2.20;;
51602;SDS011;37954;51.980;5.850;2024-02-16T00:54:20;2.55;;;2.33;;
51602;SDS011;37954;51.980;5.850;2024-02-16T00:58:32;5.35;;;2.40;;
51602;SDS011;37954;51.980;5.850;2024-02-16T01:02:44;6.03;;;2.55;;
51602;SDS011;37954;51.980;5.850;2024-02-16T01:06:56;3.15;;;2.10;;
51602;SDS011;37954;51.980;5.850;2024-02-16T01:11:08;3.03;;;2.00;;
51602;SDS011;37954;51.980;5.850;2024-02-16T01:15:19;3.97;;;2.28;;
51602;SDS011;37954;51.980;5.850;2024-02-16T01:19:31;2.78;;;2.17;;
51602;SDS011;37954;51.980;5.850;2024-02-16T01:23:45;3.08;;;2.03;;
51602;SDS011;37954;51.980;5.850;2024-02-16T01:27:56;8.95;;;2.60;;
51602;SDS011;37954;51.980;5.850;2024-02-16T01:32:08;5.72;;;2.25;;
51602;SDS011;37954;51.980;5.850;2024-02-16T01:36:20;5.90;;;2.40;;
51602;SDS011;37954;51.980;5.850;2024-02-16T01:40:32;7.20;;;2.30;;
51602;SDS011;37954;51.980;5.850;2024-02-16T01:44:43;4.60;;;2.53;;
51602;SDS011;37954;51.980;5.850;2024-02-16T01:49:06;2.90;;;1.88;;
51602;SDS011;37954;51.980;5.850;2024-02-16T01:53:19;4.15;;;2.28;;
51602;SDS011;37954;51.980;5.850;2024-02-16T01:57:31;3.67;;;2.45;;
51602;SDS011;37954;51.980;5.850;2024-02-16T02:01:43;6.20;;;2.10;;
51602;SDS011;37954;51.980;5.850;2024-02-16T02:05:55;2.80;;;2.10;;
51602;SDS011;37954;51.980;5.850;2024-02-16T02:10:23;3.35;;;2.10;;
51602;SDS011;37954;51.980;5.850;2024-02-16T02:14:35;6.60;;;2.70;;
51602;SDS011;37954;51.980;5.850;2024-02-16T02:18:48;3.88;;;2.20;;
51602;SDS011;37954;51.980;5.850;2024-02-16T02:23:00;3.15;;;2.33;;
51602;SDS011;37954;51.980;5.850;2024-02-16T02:27:12;3.80;;;2.28;;
51602;SDS011;37954;51.980;5.850;2024-02-16T02:31:24;3.28;;;2.17;;
51602;SDS011;37954;51.980;5.850;2024-02-16T02:35:36;2.53;;;2.10;;
51602;SDS011;37954;51.980;5.850;2024-02-16T02:39:48;3.22;;;2.60;;
51602;SDS011;37954;51.980;5.850;2024-02-16T02:44:00;5.80;;;2.72;;
51602;SDS011;37954;51.980;5.850;2024-02-16T02:48:12;3.65;;;2.33;;
51602;SDS011;37954;51.980;5.850;2024-02-16T02:52:24;6.10;;;2.40;;
51602;SDS011;37954;51.980;5.850;2024-02-16T02:56:35;3.65;;;2.65;;
51602;SDS011;37954;51.980;5.850;2024-02-16T03:00:47;2.97;;;2.25;;
51602;SDS011;37954;51.980;5.850;2024-02-16T03:04:59;3.35;;;2.35;;
51602;SDS011;37954;51.980;5.850;2024-02-16T03:09:11;7.15;;;2.40;;
51602;SDS011;37954;51.980;5.850;2024-02-16T03:13:24;2.53;;;2.15;;
51602;SDS011;37954;51.980;5.850;2024-02-16T03:17:36;2.60;;;2.08;;
51602;SDS011;37954;51.980;5.850;2024-02-16T03:21:48;5.10;;;2.40;;
51602;SDS011;37954;51.980;5.850;2024-02-16T03:25:59;2.83;;;2.20;;
51602;SDS011;37954;51.980;5.850;2024-02-16T03:30:11;4.85;;;3.17;;
51602;SDS011;37954;51.980;5.850;2024-02-16T03:34:23;3.42;;;2.42;;
51602;SDS011;37954;51.980;5.850;2024-02-16T03:38:35;2.22;;;2.03;;
51602;SDS011;37954;51.980;5.850;2024-02-16T03:42:47;3.53;;;2.42;;
51602;SDS011;37954;51.980;5.850;2024-02-16T03:46:58;3.50;;;2.33;;
51602;SDS011;37954;51.980;5.850;2024-02-16T03:51:10;4.20;;;2.45;;
51602;SDS011;37954;51.980;5.850;2024-02-16T03:55:22;5.57;;;2.50;;
51602;SDS011;37954;51.980;5.850;2024-02-16T03:59:34;4.30;;;2.33;;
51602;SDS011;37954;51.980;5.850;2024-02-16T04:03:47;3.42;;;2.50;;
51602;SDS011;37954;51.980;5.850;2024-02-16T04:07:58;4.72;;;2.25;;
51602;SDS011;37954;51.980;5.850;2024-02-16T04:12:16;3.78;;;2.28;;
51602;SDS011;37954;51.980;5.850;2024-02-16T04:16:28;3.38;;;2.47;;
51602;SDS011;37954;51.980;5.850;2024-02-16T04:20:40;5.57;;;2.17;;
51602;SDS011;37954;51.980;5.850;2024-02-16T04:24:52;4.07;;;2.40;;
51602;SDS011;37954;51.980;5.850;2024-02-16T04:29:04;4.07;;;2.08;;
51602;SDS011;37954;51.980;5.850;2024-02-16T04:33:16;2.60;;;2.20;;
51602;SDS011;37954;51.980;5.850;2024-02-16T04:37:28;2.83;;;2.40;;
51602;SDS011;37954;51.980;5.850;2024-02-16T04:41:39;5.63;;;2.47;;
51602;SDS011;37954;51.980;5.850;2024-02-16T04:45:51;4.30;;;2.50;;
51602;SDS011;37954;51.980;5.850;2024-02-16T04:50:03;3.70;;;2.30;;
51602;SDS011;37954;51.980;5.850;2024-02-16T04:54:16;3.55;;;2.45;;
51602;SDS011;37954;51.980;5.850;2024-02-16T04:58:28;3.88;;;2.25;;
51602;SDS011;37954;51.980;5.850;2024-02-16T05:02:40;4.72;;;2.22;;
51602;SDS011;37954;51.980;5.850;2024-02-16T05:06:51;5.97;;;2.58;;
51602;SDS011;37954;51.980;5.850;2024-02-16T05:11:09;3.85;;;2.47;;
51602;SDS011;37954;51.980;5.850;2024-02-16T05:15:21;3.55;;;2.45;;
51602;SDS011;37954;51.980;5.850;2024-02-16T05:19:33;4.57;;;2.47;;
51602;SDS011;37954;51.980;5.850;2024-02-16T05:23:46;6.47;;;2.95;;
51602;SDS011;37954;51.980;5.850;2024-02-16T05:27:58;5.72;;;2.90;;
51602;SDS011;37954;51.980;5.850;2024-02-16T05:32:10;5.35;;;2.92;;
51602;SDS011;37954;51.980;5.850;2024-02-16T05:36:24;4.50;;;2.83;;
51602;SDS011;37954;51.980;5.850;2024-02-16T05:40:39;4.00;;;2.63;;
51602;SDS011;37954;51.980;5.850;2024-02-16T05:45:05;3.28;;;2.53;;
51602;SDS011;37954;51.980;5.850;2024-02-16T05:49:21;4.53;;;2.83;;
51602;SDS011;37954;51.980;5.850;2024-02-16T05:53:32;3.80;;;2.63;;
51602;SDS011;37954;51.980;5.850;2024-02-16T05:57:44;4.20;;;2.85;;
51602;SDS011;37954;51.980;5.850;2024-02-16T06:01:57;3.08;;;2.30;;
51602;SDS011;37954;51.980;5.850;2024-02-16T06:06:10;4.03;;;2.65;;
51602;SDS011;37954;51.980;5.850;2024-02-16T06:10:21;3.70;;;2.88;;
51602;SDS011;37954;51.980;5.850;2024-02-16T06:14:34;3.90;;;2.95;;
51602;SDS011;37954;51.980;5.850;2024-02-16T06:18:46;3.08;;;2.40;;
51602;SDS011;37954;51.980;5.850;2024-02-16T06:22:58;3.33;;;2.60;;
51602;SDS011;37954;51.980;5.850;2024-02-16T06:27:09;4.68;;;3.28;;
51602;SDS011;37954;51.980;5.850;2024-02-16T06:31:22;5.93;;;2.95;;
51602;SDS011;37954;51.980;5.850;2024-02-16T06:35:33;4.90;;;2.90;;
51602;SDS011;37954;51.980;5.850;2024-02-16T06:39:45;6.57;;;3.20;;
51602;SDS011;37954;51.980;5.850;2024-02-16T06:43:57;3.13;;;2.60;;
51602;SDS011;37954;51.980;5.850;2024-02-16T06:48:09;5.80;;;3.03;;
51602;SDS011;37954;51.980;5.850;2024-02-16T06:52:21;4.03;;;2.60;;
51602;SDS011;37954;51.980;5.850;2024-02-16T06:56:33;3.33;;;2.33;;
51602;SDS011;37954;51.980;5.850;2024-02-16T07:00:45;4.03;;;2.85;;
51602;SDS011;37954;51.980;5.850;2024-02-16T07:04:57;4.45;;;3.10;;
51602;SDS011;37954;51.980;5.850;2024-02-16T07:09:08;3.67;;;2.50;;
51602;SDS011;37954;51.980;5.850;2024-02-16T07:13:21;4.20;;;2.83;;
51602;SDS011;37954;51.980;5.850;2024-02-16T07:17:33;3.40;;;2.88;;
51602;SDS011;37954;51.980;5.850;2024-02-16T07:21:46;4.85;;;3.10;;
51602;SDS011;37954;51.980;5.850;2024-02-16T07:25:58;4.13;;;3.15;;
51602;SDS011;37954;51.980;5.850;2024-02-16T07:30:10;3.38;;;2.58;;
51602;SDS011;37954;51.980;5.850;2024-02-16T07:34:33;4.68;;;2.88;;
51602;SDS011;37954;51.980;5.850;2024-02-16T07:38:45;6.35;;;3.30;;
51602;SDS011;37954;51.980;5.850;2024-02-16T07:42:57;4.75;;;3.15;;
51602;SDS011;37954;51.980;5.850;2024-02-16T07:47:09;4.57;;;2.50;;
51602;SDS011;37954;51.980;5.850;2024-02-16T07:51:21;5.63;;;2.72;;
51602;SDS011;37954;51.980;5.850;2024-02-16T07:55:33;3.58;;;2.90;;
51602;SDS011;37954;51.980;5.850;2024-02-16T07:59:45;4.82;;;2.95;;
51602;SDS011;37954;51.980;5.850;2024-02-16T08:03:56;5.97;;;3.25;;
51602;SDS011;37954;51.980;5.850;2024-02-16T08:08:11;7.07;;;3.70;;
51602;SDS011;37954;51.980;5.850;2024-02-16T08:12:23;5.22;;;3.20;;
51602;SDS011;37954;51.980;5.850;2024-02-16T08:16:37;5.03;;;3.22;;
51602;SDS011;37954;51.980;5.850;2024-02-16T08:20:48;4.53;;;3.28;;
51602;SDS011;37954;51.980;5.850;2024-02-16T08:25:01;5.85;;;3.15;;
51602;SDS011;37954;51.980;5.850;2024-02-16T08:29:12;4.13;;;2.78;;
51602;SDS011;37954;51.980;5.850;2024-02-16T08:33:24;6.32;;;3.00;;
51602;SDS011;37954;51.980;5.850;2024-02-16T08:37:36;4.20;;;3.10;;
51602;SDS011;37954;51.980;5.850;2024-02-16T08:41:48;4.68;;;3.25;;
51602;SDS011;37954;51.980;5.850;2024-02-16T08:46:00;3.70;;;3.10;;
51602;SDS011;37954;51.980;5.850;2024-02-16T08:50:11;4.72;;;3.20;;
51602;SDS011;37954;51.980;5.850;2024-02-16T08:54:23;4.97;;;3.05;;
51602;SDS011;37954;51.980;5.850;2024-02-16T08:58:36;4.00;;;3.28;;
51602;SDS011;37954;51.980;5.850;2024-02-16T09:02:47;4.85;;;3.40;;
51602;SDS011;37954;51.980;5.850;2024-02-16T09:06:59;4.82;;;3.35;;
51602;SDS011;37954;51.980;5.850;2024-02-16T09:11:11;7.13;;;3.22;;
51602;SDS011;37954;51.980;5.850;2024-02-16T09:15:23;9.02;;;3.00;;
51602;SDS011;37954;51.980;5.850;2024-02-16T09:19:35;4.53;;;3.33;;
51602;SDS011;37954;51.980;5.850;2024-02-16T09:23:47;4.30;;;3.00;;
51602;SDS011;37954;51.980;5.850;2024-02-16T09:27:58;4.93;;;3.70;;
51602;SDS011;37954;51.980;5.850;2024-02-16T09:32:10;6.10;;;3.67;;
51602;SDS011;37954;51.980;5.850;2024-02-16T09:36:22;7.80;;;3.10;;
51602;SDS011;37954;51.980;5.850;2024-02-16T09:40:34;4.50;;;3.40;;
51602;SDS011;37954;51.980;5.850;2024-02-16T09:44:46;6.70;;;3.63;;
51602;SDS011;37954;51.980;5.850;2024-02-16T09:49:02;5.95;;;3.85;;
51602;SDS011;37954;51.980;5.850;2024-02-16T09:53:15;4.15;;;3.30;;
51602;SDS011;37954;51.980;5.850;2024-02-16T09:57:27;7.05;;;3.97;;
51602;SDS011;37954;51.980;5.850;2024-02-16T10:01:39;4.95;;;3.67;;
51602;SDS011;37954;51.980;5.850;2024-02-16T10:05:51;4.57;;;3.38;;
51602;SDS011;37954;51.980;5.850;2024-02-16T10:10:04;8.60;;;4.00;;
51602;SDS011;37954;51.980;5.850;2024-02-16T10:14:26;6.40;;;3.60;;
51602;SDS011;37954;51.980;5.850;2024-02-16T10:18:39;5.50;;;3.67;;
51602;SDS011;37954;51.980;5.850;2024-02-16T10:23:01;4.45;;;3.50;;
51602;SDS011;37954;51.980;5.850;2024-02-16T10:27:20;7.05;;;3.88;;
51602;SDS011;37954;51.980;5.850;2024-02-16T10:31:32;5.90;;;3.58;;
51602;SDS011;37954;51.980;5.850;2024-02-16T10:35:44;8.00;;;3.97;;
51602;SDS011;37954;51.980;5.850;2024-02-16T10:39:58;8.55;;;4.20;;
51602;SDS011;37954;51.980;5.850;2024-02-16T10:44:12;7.30;;;3.90;;
51602;SDS011;37954;51.980;5.850;2024-02-16T10:48:24;5.47;;;4.00;;
51602;SDS011;37954;51.980;5.850;2024-02-16T10:52:36;7.43;;;4.32;;
51602;SDS011;37954;51.980;5.850;2024-02-16T10:56:52;5.18;;;4.65;;
51602;SDS011;37954;51.980;5.850;2024-02-16T11:01:09;5.63;;;4.30;;
51602;SDS011;37954;51.980;5.850;2024-02-16T11:05:32;9.13;;;4.70;;
51602;SDS011;37954;51.980;5.850;2024-02-16T11:09:47;10.57;;;4.70;;
51602;SDS011;37954;51.980;5.850;2024-02-16T11:14:01;7.10;;;4.43;;
51602;SDS011;37954;51.980;5.850;2024-02-16T11:18:15;6.00;;;4.80;;
51602;SDS011;37954;51.980;5.850;2024-02-16T11:22:27;10.63;;;5.25;;
51602;SDS011;37954;51.980;5.850;2024-02-16T11:26:44;7.22;;;5.38;;
51602;SDS011;37954;51.980;5.850;2024-02-16T11:30:56;8.60;;;5.72;;
51602;SDS011;37954;51.980;5.850;2024-02-16T11:35:12;9.07;;;6.85;;
51602;SDS011;37954;51.980;5.850;2024-02-16T11:39:24;9.18;;;6.60;;
51602;SDS011;37954;51.980;5.850;2024-02-16T11:43:41;7.93;;;6.63;;
51602;SDS011;37954;51.980;5.850;2024-02-16T11:48:05;8.45;;;6.65;;
51602;SDS011;37954;51.980;5.850;2024-02-16T11:52:19;9.43;;;7.50;;
51602;SDS011;37954;51.980;5.850;2024-02-16T11:56:30;9.18;;;6.78;;
51602;SDS011;37954;51.980;5.850;2024-02-16T12:00:42;9.75;;;7.63;;
51602;SDS011;37954;51.980;5.850;2024-02-16T12:04:58;7.75;;;6.75;;
51602;SDS011;37954;51.980;5.850;2024-02-16T12:09:15;8.77;;;7.10;;
51602;SDS011;37954;51.980;5.850;2024-02-16T12:13:30;7.68;;;6.80;;
51602;SDS011;37954;51.980;5.850;2024-02-16T12:17:42;8.20;;;6.40;;
51602;SDS011;37954;51.980;5.850;2024-02-16T12:21:55;8.63;;;6.50;;
51602;SDS011;37954;51.980;5.850;2024-02-16T12:26:10;11.45;;;7.05;;
51602;SDS011;37954;51.980;5.850;2024-02-16T12:30:22;8.05;;;6.63;;
51602;SDS011;37954;51.980;5.850;2024-02-16T12:34:34;7.90;;;6.35;;
51602;SDS011;37954;51.980;5.850;2024-02-16T12:38:45;7.05;;;5.90;;
51602;SDS011;37954;51.980;5.850;2024-02-16T12:42:57;8.45;;;6.90;;
51602;SDS011;37954;51.980;5.850;2024-02-16T12:47:09;10.05;;;6.90;;
51602;SDS011;37954;51.980;5.850;2024-02-16T12:51:21;7.63;;;6.82;;
51602;SDS011;37954;51.980;5.850;2024-02-16T12:55:33;7.45;;;6.60;;
51602;SDS011;37954;51.980;5.850;2024-02-16T12:59:45;8.10;;;6.93;;
51602;SDS011;37954;51.980;5.850;2024-02-16T13:03:57;7.97;;;7.18;;
51602;SDS011;37954;51.980;5.850;2024-02-16T13:08:08;8.38;;;7.57;;
51602;SDS011;37954;51.980;5.850;2024-02-16T13:12:20;10.45;;;7.22;;
51602;SDS011;37954;51.980;5.850;2024-02-16T13:16:35;8.50;;;7.20;;
51602;SDS011;37954;51.980;5.850;2024-02-16T13:20:47;8.30;;;6.43;;
51602;SDS011;37954;51.980;5.850;2024-02-16T13:24:58;8.07;;;6.50;;
51602;SDS011;37954;51.980;5.850;2024-02-16T13:29:10;6.68;;;5.97;;
51602;SDS011;37954;51.980;5.850;2024-02-16T13:33:22;6.60;;;6.00;;
51602;SDS011;37954;51.980;5.850;2024-02-16T13:37:34;7.25;;;6.22;;
51602;SDS011;37954;51.980;5.850;2024-02-16T13:41:46;6.65;;;5.60;;
51602;SDS011;37954;51.980;5.850;2024-02-16T13:45:59;7.93;;;5.57;;
51602;SDS011;37954;51.980;5.850;2024-02-16T13:50:11;6.38;;;4.82;;
51602;SDS011;37954;51.980;5.850;2024-02-16T13:54:24;6.28;;;5.22;;
51602;SDS011;37954;51.980;5.850;2024-02-16T13:58:36;8.07;;;5.45;;
51602;SDS011;37954;51.980;5.850;2024-02-16T14:02:51;6.55;;;5.30;;
51602;SDS011;37954;51.980;5.850;2024-02-16T14:07:03;5.65;;;4.25;;
51602;SDS011;37954;51.980;5.850;2024-02-16T14:11:15;4.38;;;3.97;;
51602;SDS011;37954;51.980;5.850;2024-02-16T14:15:27;4.57;;;3.78;;
51602;SDS011;37954;51.980;5.850;2024-02-16T14:19:42;5.93;;;3.95;;
51602;SDS011;37954;51.980;5.850;2024-02-16T14:23:54;3.80;;;3.38;;
51602;SDS011;37954;51.980;5.850;2024-02-16T14:28:06;4.20;;;3.60;;
51602;SDS011;37954;51.980;5.850;2024-02-16T14:32:20;4.53;;;3.75;;
51602;SDS011;37954;51.980;5.850;2024-02-16T14:36:32;3.92;;;3.55;;
51602;SDS011;37954;51.980;5.850;2024-02-16T14:40:43;3.05;;;2.80;;
51602;SDS011;37954;51.980;5.850;2024-02-16T14:44:55;4.20;;;3.47;;
51602;SDS011;37954;51.980;5.850;2024-02-16T14:49:07;2.88;;;2.17;;
51602;SDS011;37954;51.980;5.850;2024-02-16T14:53:20;6.55;;;5.85;;
51602;SDS011;37954;51.980;5.850;2024-02-16T14:57:32;2.42;;;1.73;;
51602;SDS011;37954;51.980;5.850;2024-02-16T15:01:45;2.25;;;1.90;;
51602;SDS011;37954;51.980;5.850;2024-02-16T15:05:56;4.45;;;2.30;;
51602;SDS011;37954;51.980;5.850;2024-02-16T15:10:08;3.72;;;2.50;;
51602;SDS011;37954;51.980;5.850;2024-02-16T15:14:22;2.20;;;2.00;;
51602;SDS011;37954;51.980;5.850;2024-02-16T15:18:34;3.22;;;2.75;;
51602;SDS011;37954;51.980;5.850;2024-02-16T15:22:47;2.70;;;2.10;;
51602;SDS011;37954;51.980;5.850;2024-02-16T15:27:04;2.70;;;2.20;;
51602;SDS011;37954;51.980;5.850;2024-02-16T15:31:16;2.47;;;2.20;;
51602;SDS011;37954;51.980;5.850;2024-02-16T15:35:28;3.28;;;1.90;;
51602;SDS011;37954;51.980;5.850;2024-02-16T15:39:39;2.35;;;2.15;;
51602;SDS011;37954;51.980;5.850;2024-02-16T15:43:51;3.10;;;2.05;;
51602;SDS011;37954;51.980;5.850;2024-02-16T15:48:03;5.90;;;3.78;;
51602;SDS011;37954;51.980;5.850;2024-02-16T15:52:15;5.78;;;4.07;;
51602;SDS011;37954;51.980;5.850;2024-02-16T15:56:26;3.53;;;2.28;;
51602;SDS011;37954;51.980;5.850;2024-02-16T16:00:38;4.35;;;2.55;;
51602;SDS011;37954;51.980;5.850;2024-02-16T16:04:50;3.38;;;2.33;;
51602;SDS011;37954;51.980;5.850;2024-02-16T16:09:02;3.38;;;2.45;;
51602;SDS011;37954;51.980;5.850;2024-02-16T16:13:18;4.10;;;3.67;;
51602;SDS011;37954;51.980;5.850;2024-02-16T16:17:30;3.80;;;3.50;;
51602;SDS011;37954;51.980;5.850;2024-02-16T16:21:42;3.78;;;3.38;;
51602;SDS011;37954;51.980;5.850;2024-02-16T16:25:53;3.55;;;2.85;;
51602;SDS011;37954;51.980;5.850;2024-02-16T16:30:10;4.43;;;3.33;;
51602;SDS011;37954;51.980;5.850;2024-02-16T16:34:22;6.55;;;3.38;;
51602;SDS011;37954;51.980;5.850;2024-02-16T16:38:34;5.05;;;3.65;;
51602;SDS011;37954;51.980;5.850;2024-02-16T16:42:46;6.22;;;3.80;;
51602;SDS011;37954;51.980;5.850;2024-02-16T16:46:58;3.65;;;3.35;;
51602;SDS011;37954;51.980;5.850;2024-02-16T16:51:10;4.00;;;3.17;;
51602;SDS011;37954;51.980;5.850;2024-02-16T16:55:22;3.95;;;3.33;;
51602;SDS011;37954;51.980;5.850;2024-02-16T16:59:34;4.43;;;3.97;;
51602;SDS011;37954;51.980;5.850;2024-02-16T17:03:46;6.57;;;4.57;;
51602;SDS011;37954;51.980;5.850;2024-02-16T17:07:58;6.65;;;4.05;;
51602;SDS011;37954;51.980;5.850;2024-02-16T17:12:09;6.38;;;4.47;;
51602;SDS011;37954;51.980;5.850;2024-02-16T17:16:22;7.80;;;5.50;;
51602;SDS011;37954;51.980;5.850;2024-02-16T17:20:34;7.72;;;5.35;;
51602;SDS011;37954;51.980;5.850;2024-02-16T17:24:51;8.73;;;6.95;;
51602;SDS011;37954;51.980;5.850;2024-02-16T17:29:04;13.25;;;9.60;;
51602;SDS011;37954;51.980;5.850;2024-02-16T17:33:16;10.10;;;7.03;;
51602;SDS011;37954;51.980;5.850;2024-02-16T17:37:28;7.63;;;6.93;;
51602;SDS011;37954;51.980;5.850;2024-02-16T17:41:40;9.68;;;6.88;;
51602;SDS011;37954;51.980;5.850;2024-02-16T17:45:53;8.48;;;7.18;;
51602;SDS011;37954;51.980;5.850;2024-02-16T17:50:05;10.10;;;7.75;;
51602;SDS011;37954;51.980;5.850;2024-02-16T17:54:17;8.63;;;7.72;;
51602;SDS011;37954;51.980;5.850;2024-02-16T17:58:30;11.70;;;8.73;;
51602;SDS011;37954;51.980;5.850;2024-02-16T18:02:42;9.38;;;8.30;;
51602;SDS011;37954;51.980;5.850;2024-02-16T18:06:59;10.25;;;8.40;;
51602;SDS011;37954;51.980;5.850;2024-02-16T18:11:11;10.38;;;8.20;;
51602;SDS011;37954;51.980;5.850;2024-02-16T18:15:23;14.57;;;9.55;;
51602;SDS011;37954;51.980;5.850;2024-02-16T18:19:36;12.57;;;10.13;;
51602;SDS011;37954;51.980;5.850;2024-02-16T18:23:50;10.02;;;8.90;;
51602;SDS011;37954;51.980;5.850;2024-02-16T18:28:02;12.63;;;9.73;;
51602;SDS011;37954;51.980;5.850;2024-02-16T18:32:14;12.65;;;8.93;;
51602;SDS011;37954;51.980;5.850;2024-02-16T18:36:26;10.27;;;8.80;;
51602;SDS011;37954;51.980;5.850;2024-02-16T18:40:41;9.25;;;8.35;;
51602;SDS011;37954;51.980;5.850;2024-02-16T18:44:53;11.05;;;8.70;;
51602;SDS011;37954;51.980;5.850;2024-02-16T18:49:06;14.63;;;9.95;;
51602;SDS011;37954;51.980;5.850;2024-02-16T18:53:19;10.98;;;9.73;;
51602;SDS011;37954;51.980;5.850;2024-02-16T18:57:30;13.55;;;10.43;;
51602;SDS011;37954;51.980;5.850;2024-02-16T19:01:42;14.40;;;10.95;;
51602;SDS011;37954;51.980;5.850;2024-02-16T19:05:54;12.65;;;10.20;;
51602;SDS011;37954;51.980;5.850;2024-02-16T19:10:06;11.52;;;9.57;;
51602;SDS011;37954;51.980;5.850;2024-02-16T19:14:18;13.45;;;10.43;;
51602;SDS011;37954;51.980;5.850;2024-02-16T19:18:31;12.10;;;10.27;;
51602;SDS011;37954;51.980;5.850;2024-02-16T19:22:43;12.15;;;10.38;;
51602;SDS011;37954;51.980;5.850;2024-02-16T19:26:57;12.18;;;10.20;;
51602;SDS011;37954;51.980;5.850;2024-02-16T19:31:10;18.27;;;10.88;;
51602;SDS011;37954;51.980;5.850;2024-02-16T19:35:21;13.98;;;12.23;;
51602;SDS011;37954;51.980;5.850;2024-02-16T19:39:33;14.45;;;12.13;;
51602;SDS011;37954;51.980;5.850;2024-02-16T19:43:45;17.33;;;12.55;;
51602;SDS011;37954;51.980;5.850;2024-02-16T19:47:57;18.75;;;11.85;;
51602;SDS011;37954;51.980;5.850;2024-02-16T19:52:09;20.55;;;14.68;;
51602;SDS011;37954;51.980;5.850;2024-02-16T19:56:21;18.30;;;13.40;;
51602;SDS011;37954;51.980;5.850;2024-02-16T20:00:33;21.17;;;16.33;;
51602;SDS011;37954;51.980;5.850;2024-02-16T20:04:46;17.25;;;13.25;;
51602;SDS011;37954;51.980;5.850;2024-02-16T20:08:59;21.23;;;14.95;;
51602;SDS011;37954;51.980;5.850;2024-02-16T20:13:11;20.70;;;14.45;;
51602;SDS011;37954;51.980;5.850;2024-02-16T20:17:23;18.45;;;14.32;;
51602;SDS011;37954;51.980;5.850;2024-02-16T20:21:36;15.00;;;12.40;;
51602;SDS011;37954;51.980;5.850;2024-02-16T20:25:48;16.10;;;11.95;;
51602;SDS011;37954;51.980;5.850;2024-02-16T20:30:00;15.57;;;12.75;;
51602;SDS011;37954;51.980;5.850;2024-02-16T20:34:12;17.55;;;12.77;;
51602;SDS011;37954;51.980;5.850;2024-02-16T20:38:24;12.77;;;11.00;;
51602;SDS011;37954;51.980;5.850;2024-02-16T20:42:36;13.40;;;11.18;;
51602;SDS011;37954;51.980;5.850;2024-02-16T20:46:49;15.85;;;10.52;;
51602;SDS011;37954;51.980;5.850;2024-02-16T20:51:02;17.17;;;10.90;;
51602;SDS011;37954;51.980;5.850;2024-02-16T20:55:14;12.90;;;9.98;;
51602;SDS011;37954;51.980;5.850;2024-02-16T20:59:26;17.15;;;11.30;;
51602;SDS011;37954;51.980;5.850;2024-02-16T21:03:38;12.77;;;10.18;;
51602;SDS011;37954;51.980;5.850;2024-02-16T21:07:54;13.88;;;9.85;;
51602;SDS011;37954;51.980;5.850;2024-02-16T21:12:08;14.23;;;10.68;;
51602;SDS011;37954;51.980;5.850;2024-02-16T21:16:20;15.20;;;10.70;;
51602;SDS011;37954;51.980;5.850;2024-02-16T21:20:32;15.75;;;11.07;;
51602;SDS011;37954;51.980;5.850;2024-02-16T21:24:44;15.80;;;10.50;;
51602;SDS011;37954;51.980;5.850;2024-02-16T21:28:55;18.13;;;11.88;;
51602;SDS011;37954;51.980;5.850;2024-02-16T21:33:07;14.60;;;11.30;;
51602;SDS011;37954;51.980;5.850;2024-02-16T21:37:19;14.35;;;10.45;;
51602;SDS011;37954;51.980;5.850;2024-02-16T21:41:31;17.20;;;11.38;;
51602;SDS011;37954;51.980;5.850;2024-02-16T21:45:43;15.95;;;10.50;;
51602;SDS011;37954;51.980;5.850;2024-02-16T21:49:55;14.80;;;9.98;;
51602;SDS011;37954;51.980;5.850;2024-02-16T21:54:07;17.13;;;11.15;;
51602;SDS011;37954;51.980;5.850;2024-02-16T21:58:20;13.73;;;10.25;;
51602;SDS011;37954;51.980;5.850;2024-02-16T22:02:31;13.68;;;10.88;;
51602;SDS011;37954;51.980;5.850;2024-02-16T22:06:43;19.42;;;11.65;;
51602;SDS011;37954;51.980;5.850;2024-02-16T22:10:56;19.38;;;12.98;;
51602;SDS011;37954;51.980;5.850;2024-02-16T22:15:08;13.13;;;10.25;;
51602;SDS011;37954;51.980;5.850;2024-02-16T22:19:20;14.70;;;10.02;;
51602;SDS011;37954;51.980;5.850;2024-02-16T22:23:33;14.00;;;9.63;;
51602;SDS011;37954;51.980;5.850;2024-02-16T22:27:46;18.98;;;10.63;;
51602;SDS011;37954;51.980;5.850;2024-02-16T22:31:58;14.18;;;9.45;;
51602;SDS011;37954;51.980;5.850;2024-02-16T22:36:26;15.20;;;11.07;;
51602;SDS011;37954;51.980;5.850;2024-02-16T22:40:40;12.25;;;9.77;;
51602;SDS011;37954;51.980;5.850;2024-02-16T22:44:52;14.20;;;10.82;;
51602;SDS011;37954;51.980;5.850;2024-02-16T22:49:03;19.15;;;11.25;;
51602;SDS011;37954;51.980;5.850;2024-02-16T22:53:15;14.98;;;11.23;;
51602;SDS011;37954;51.980;5.850;2024-02-16T22:57:27;16.95;;;12.88;;
51602;SDS011;37954;51.980;5.850;2024-02-16T23:01:39;17.25;;;12.02;;
51602;SDS011;37954;51.980;5.850;2024-02-16T23:05:51;16.80;;;11.48;;
51602;SDS011;37954;51.980;5.850;2024-02-16T23:10:05;18.15;;;12.68;;
51602;SDS011;37954;51.980;5.850;2024-02-16T23:14:20;15.57;;;13.07;;
51602;SDS011;37954;51.980;5.850;2024-02-16T23:18:32;17.63;;;13.02;;
51602;SDS011;37954;51.980;5.850;2024-02-16T23:27:11;20.27;;;12.77;;
51602;SDS011;37954;51.980;5.850;2024-02-16T23:31:23;18.63;;;12.27;;
51602;SDS011;37954;51.980;5.850;2024-02-16T23:35:35;18.88;;;12.50;;
51602;SDS011;37954;51.980;5.850;2024-02-16T23:39:47;16.75;;;11.95;;
51602;SDS011;37954;51.980;5.850;2024-02-16T23:43:59;18.50;;;11.68;;
51602;SDS011;37954;51.980;5.850;2024-02-16T23:48:12;16.20;;;12.40;;
51602;SDS011;37954;51.980;5.850;2024-02-16T23:52:24;18.42;;;12.30;;
51602;SDS011;37954;51.980;5.850;2024-02-16T23:56:36;13.60;;;11.10;;
